Time;durP1;ratioP1;P1;durP2;ratioP2;P2;SDS_P1;SDS_P2;PMS_P1;PMS_P2;Temp;Humidity;BMP_temperature;BMP_pressure;BME280_temperature;BME280_humidity;BME280_pressure;Samples;Min_cycle;Max_cycle;Signal;HPM_P1;HPM_P2
2022/10/13 00:00:55;;;;;;;0.30;0.30;;;;;;;11.43;76.22;101927.69;2102808;28;20075;-71
2022/10/13 00:01:58;;;;;;;0.30;0.30;;;;;;;11.45;76.04;101925.41;2096082;28;20446;-71
2022/10/13 00:03:00;;;;;;;0.22;0.22;;;;;;;11.46;76.26;101932.44;2086566;28;20060;-71
2022/10/13 00:04:03;;;;;;;0.30;0.30;;;;;;;11.45;76.13;101937.03;2093962;28;20062;-72
2022/10/13 00:05:05;;;;;;;0.30;0.30;;;;;;;11.45;76.40;101925.41;2102616;28;20048;-71
2022/10/13 00:06:11;;;;;;;0.30;0.30;;;;;;;11.45;76.33;101926.22;2103314;28;20044;-72
2022/10/13 00:07:12;;;;;;;0.20;0.20;;;;;;;11.45;76.46;101925.41;2104203;28;20132;-71
2022/10/13 00:08:18;;;;;;;0.20;0.20;;;;;;;11.45;76.13;101925.41;2103361;28;20082;-71
2022/10/13 00:09:21;;;;;;;0.25;0.25;;;;;;;11.42;76.27;101923.38;2104284;28;20047;-71
2022/10/13 00:10:24;;;;;;;0.30;0.30;;;;;;;11.41;76.85;101919.06;2102898;28;20053;-70
2022/10/13 00:11:29;;;;;;;0.20;0.20;;;;;;;11.42;76.69;101915.25;2103628;28;20055;-71
2022/10/13 00:12:33;;;;;;;0.30;0.30;;;;;;;11.36;76.90;101922.75;2104835;28;20063;-71
2022/10/13 00:13:41;;;;;;;0.20;0.20;;;;;;;11.38;76.34;101914.31;2102129;28;20958;-71
2022/10/13 00:14:43;;;;;;;0.30;0.30;;;;;;;11.37;76.75;101918.13;2092894;28;20060;-72
2022/10/13 00:15:48;;;;;;;0.20;0.20;;;;;;;11.37;76.86;101918.91;2094245;28;20067;-72
2022/10/13 00:16:50;;;;;;;0.28;0.28;;;;;;;11.36;76.71;101916.53;2103393;28;20626;-72
2022/10/13 00:17:53;;;;;;;0.22;0.22;;;;;;;11.35;77.08;101915.72;2102320;28;20048;-72
2022/10/13 00:18:55;;;;;;;0.30;0.30;;;;;;;11.36;75.94;101911.13;2104421;28;20108;-72
2022/10/13 00:19:58;;;;;;;0.25;0.25;;;;;;;11.36;76.00;101909.22;2094727;28;20527;-69
2022/10/13 00:21:00;;;;;;;0.30;0.30;;;;;;;11.35;76.88;101915.72;2094094;28;20048;-70
2022/10/13 00:22:03;;;;;;;0.30;0.30;;;;;;;11.36;77.20;101911.13;2103630;28;20055;-70
2022/10/13 00:23:05;;;;;;;0.30;0.30;;;;;;;11.35;76.81;101914.94;2103311;28;20040;-70
2022/10/13 00:24:10;;;;;;;0.20;0.20;;;;;;;11.37;77.21;101910.03;2104796;28;20054;-71
2022/10/13 00:25:12;;;;;;;0.28;0.28;;;;;;;11.35;77.26;101913.03;2101433;28;20107;-71
2022/10/13 00:26:17;;;;;;;0.20;0.20;;;;;;;11.34;77.42;101900.63;2104438;28;20079;-71
2022/10/13 00:27:19;;;;;;;0.20;0.20;;;;;;;11.34;77.28;101907.94;2103211;28;20051;-71
2022/10/13 00:28:22;;;;;;;0.30;0.30;;;;;;;11.34;77.04;101907.94;2104106;28;20541;-71
2022/10/13 00:29:24;;;;;;;0.20;0.20;;;;;;;11.33;77.22;101911.75;2104818;28;20059;-71
2022/10/13 00:30:27;;;;;;;0.28;0.28;;;;;;;11.31;77.19;101903.16;2102714;28;20047;-71
2022/10/13 00:31:30;;;;;;;0.30;0.30;;;;;;;11.30;77.16;101904.28;2095445;28;20063;-71
2022/10/13 00:32:33;;;;;;;0.20;0.20;;;;;;;11.28;77.42;101901.91;2095673;28;20057;-71
2022/10/13 00:33:38;;;;;;;0.20;0.20;;;;;;;11.28;77.69;101903.81;2103038;28;20048;-71
2022/10/13 00:34:41;;;;;;;0.30;0.30;;;;;;;11.27;77.53;101894.13;2093996;28;20515;-71
2022/10/13 00:35:45;;;;;;;0.20;0.20;;;;;;;11.27;77.91;101900.34;2093329;28;20055;-71
2022/10/13 00:36:49;;;;;;;0.30;0.30;;;;;;;11.23;78.22;101899.38;2104199;28;20127;-71
2022/10/13 00:37:52;;;;;;;0.20;0.20;;;;;;;11.23;77.73;101896.66;2102341;28;20052;-72
2022/10/13 00:38:55;;;;;;;0.30;0.30;;;;;;;11.23;77.87;101893.97;2095606;28;20115;-71
2022/10/13 00:39:56;;;;;;;0.28;0.28;;;;;;;11.21;78.27;101893.47;2095147;28;20075;-71
2022/10/13 00:40:59;;;;;;;0.30;0.30;;;;;;;11.27;78.28;101896.81;2103018;28;20052;-71
2022/10/13 00:42:02;;;;;;;0.20;0.20;;;;;;;11.28;77.98;101901.91;2104584;28;20053;-72
2022/10/13 00:43:13;;;;;;;0.30;0.30;;;;;;;11.28;77.74;101898.41;2103605;28;20088;-72
2022/10/13 00:44:53;;;;;;;0.30;0.30;;;;;;;11.22;78.22;101897.78;2100739;28;20507;-71
2022/10/13 00:45:56;;;;;;;0.22;0.22;;;;;;;11.21;77.86;101895.41;2102377;28;20062;-72
2022/10/13 00:46:59;;;;;;;0.30;0.30;;;;;;;11.23;78.23;101890.44;2104633;28;20044;-72
2022/10/13 00:48:04;;;;;;;0.30;0.30;;;;;;;11.24;77.83;101898.25;2102521;28;20477;-72
2022/10/13 00:49:10;;;;;;;0.30;0.30;;;;;;;11.25;78.71;101893.63;2104198;28;20488;-72
2022/10/13 00:50:17;;;;;;;0.25;0.25;;;;;;;11.25;78.11;101899.03;2102954;28;20049;-72
2022/10/13 00:51:23;;;;;;;0.30;0.30;;;;;;;11.26;78.14;101892.50;2102928;28;20105;-71
2022/10/13 00:52:28;;;;;;;0.30;0.30;;;;;;;11.23;77.95;101890.44;2102406;28;20769;-71
2022/10/13 00:53:33;;;;;;;0.30;0.30;;;;;;;11.24;78.48;101892.06;2093548;28;20095;-71
2022/10/13 00:54:36;;;;;;;0.30;0.30;;;;;;;11.23;78.29;101890.44;2094982;28;20048;-71
2022/10/13 00:55:41;;;;;;;0.40;0.40;;;;;;;11.23;78.08;101888.56;2103251;28;20048;-71
2022/10/13 00:56:45;;;;;;;0.30;0.30;;;;;;;11.23;78.12;101890.44;2103473;28;20056;-71
2022/10/13 00:57:53;;;;;;;0.30;0.30;;;;;;;11.22;78.82;101883.47;2103385;28;20048;-71
2022/10/13 00:59:09;;;;;;;0.30;0.30;;;;;;;11.20;78.81;101885.69;2103420;28;20050;-71
2022/10/13 01:00:13;;;;;;;0.40;0.40;;;;;;;11.21;78.57;101884.59;2093748;28;20053;-71
2022/10/13 01:01:16;;;;;;;0.28;0.28;;;;;;;11.23;78.58;101879.63;2094348;28;20424;-71
2022/10/13 01:02:21;;;;;;;0.30;0.30;;;;;;;11.24;78.35;101887.44;2102727;28;20052;-71
2022/10/13 01:03:25;;;;;;;0.30;0.30;;;;;;;11.25;78.53;101883.63;2101951;28;20056;-71
2022/10/13 01:04:32;;;;;;;0.30;0.30;;;;;;;11.24;78.91;101879.31;2103820;28;20611;-71
2022/10/13 01:05:36;;;;;;;0.25;0.25;;;;;;;11.24;78.88;101881.25;2102311;28;20135;-71
2022/10/13 01:06:39;;;;;;;0.30;0.30;;;;;;;11.24;78.74;101881.25;2102552;28;20063;-72
2022/10/13 01:07:47;;;;;;;0.25;0.25;;;;;;;11.24;78.51;101886.66;2102322;28;20052;-70
2022/10/13 01:08:49;;;;;;;0.30;0.30;;;;;;;11.22;78.74;101872.66;2103737;28;20066;-71
2022/10/13 01:09:53;;;;;;;0.30;0.30;;;;;;;11.21;78.99;101881.88;2103783;28;20051;-71
2022/10/13 01:11:06;;;;;;;0.30;0.30;;;;;;;11.21;78.57;101876.47;2103279;28;20055;-71
2022/10/13 01:12:23;;;;;;;0.30;0.30;;;;;;;11.19;79.13;101876.81;2085929;28;20210;-72
2022/10/13 01:13:33;;;;;;;0.30;0.30;;;;;;;11.15;78.86;101867.72;2080376;28;20049;-70
2022/10/13 01:14:46;;;;;;;0.20;0.20;;;;;;;11.18;78.97;101877.13;2095664;28;20052;-70
2022/10/13 01:15:58;;;;;;;0.22;0.22;;;;;;;11.17;79.07;101870.09;2102004;28;20047;-71
2022/10/13 01:17:09;;;;;;;0.30;0.30;;;;;;;11.17;79.30;101862.00;2093207;28;20052;-70
2022/10/13 01:18:21;;;;;;;0.30;0.30;;;;;;;11.16;79.18;101868.53;2095098;28;20048;-70
2022/10/13 01:20:06;;;;;;;0.20;0.20;;;;;;;11.10;79.30;101872.50;2093728;28;20048;-71
2022/10/13 01:21:18;;;;;;;0.30;0.30;;;;;;;11.09;79.15;101863.59;2082336;28;20086;-71
2022/10/13 01:22:39;;;;;;;0.20;0.20;;;;;;;11.10;79.24;101859.78;2104627;28;20052;-71
2022/10/13 01:24:19;;;;;;;0.20;0.20;;;;;;;11.09;79.13;101865.50;2101934;28;21778;-71
2022/10/13 01:25:50;;;;;;;0.20;0.20;;;;;;;11.04;78.74;101854.84;2102203;28;20063;-70
2022/10/13 01:27:21;;;;;;;0.30;0.30;;;;;;;11.03;78.93;101862.19;2102144;28;20399;-70
2022/10/13 01:28:47;;;;;;;0.28;0.28;;;;;;;11.04;79.01;101857.53;2103767;28;20056;-71
2022/10/13 01:30:26;;;;;;;0.20;0.20;;;;;;;10.97;79.36;101854.53;2103812;28;20430;-71
2022/10/13 01:31:38;;;;;;;0.30;0.30;;;;;;;11.03;79.77;101851.38;2069017;28;20125;-71
2022/10/13 01:33:01;;;;;;;0.30;0.30;;;;;;;11.01;79.76;101847.38;2068021;28;20298;-71
2022/10/13 01:34:15;;;;;;;0.28;0.28;;;;;;;11.01;79.72;101852.78;2069265;28;20061;-71
2022/10/13 01:35:31;;;;;;;0.28;0.28;;;;;;;11.03;79.21;101847.88;2068633;28;20053;-71
2022/10/13 01:36:49;;;;;;;0.30;0.30;;;;;;;11.05;79.59;101851.06;2067435;28;20061;-71
2022/10/13 01:37:59;;;;;;;0.20;0.20;;;;;;;11.04;79.70;101844.84;2101666;28;20403;-70
2022/10/13 01:39:14;;;;;;;0.20;0.20;;;;;;;11.04;79.85;101844.03;2103196;28;20127;-71
2022/10/13 01:40:24;;;;;;;0.20;0.20;;;;;;;11.04;79.87;101849.44;2101983;28;20386;-71
2022/10/13 01:41:34;;;;;;;0.30;0.30;;;;;;;11.05;79.65;101845.66;2093776;28;20119;-70
2022/10/13 01:42:42;;;;;;;0.30;0.30;;;;;;;11.06;79.27;101841.81;2087128;28;20061;-70
2022/10/13 01:43:54;;;;;;;0.30;0.30;;;;;;;11.06;79.75;101842.63;2095083;28;20044;-71
2022/10/13 01:45:00;;;;;;;0.20;0.20;;;;;;;11.06;79.78;101841.81;2102305;28;20044;-70
2022/10/13 01:46:09;;;;;;;0.30;0.30;;;;;;;11.06;79.99;101831.00;2103108;28;20549;-70
2022/10/13 01:47:15;;;;;;;0.23;0.23;;;;;;;11.03;80.18;101837.84;2103567;28;20052;-71
2022/10/13 01:48:19;;;;;;;0.30;0.30;;;;;;;11.04;80.19;101834.03;2094242;28;20056;-71
2022/10/13 01:49:29;;;;;;;0.22;0.22;;;;;;;11.04;79.83;101841.34;2093340;28;20045;-71
2022/10/13 01:50:36;;;;;;;0.30;0.30;;;;;;;11.03;80.35;101837.06;2102604;28;20495;-72
2022/10/13 01:51:39;;;;;;;0.30;0.30;;;;;;;11.01;79.92;101823.06;2093540;28;20072;-72
2022/10/13 01:52:43;;;;;;;0.20;0.20;;;;;;;11.04;80.15;101827.81;2094916;28;20118;-71
2022/10/13 01:53:47;;;;;;;0.47;0.30;;;;;;;11.05;79.64;101821.31;2102910;28;20059;-72
2022/10/13 01:54:52;;;;;;;0.25;0.25;;;;;;;11.05;79.66;101824.81;2102566;28;20040;-71
2022/10/13 01:55:55;;;;;;;0.20;0.20;;;;;;;11.04;79.83;101823.22;2101835;28;20078;-71
2022/10/13 01:56:58;;;;;;;0.20;0.20;;;;;;;11.08;79.99;101836.91;2101261;28;20169;-71
2022/10/13 01:58:01;;;;;;;0.20;0.20;;;;;;;11.08;80.31;101828.78;2102286;28;20131;-71
2022/10/13 01:59:08;;;;;;;0.30;0.30;;;;;;;11.09;80.30;101819.56;2102205;28;20131;-71
2022/10/13 02:00:13;;;;;;;0.30;0.30;;;;;;;11.06;80.15;101820.19;2101365;28;20122;-71
2022/10/13 02:01:32;;;;;;;0.30;0.30;;;;;;;11.02;80.58;101822.75;2101721;28;20056;-71
2022/10/13 02:02:42;;;;;;;0.30;0.30;;;;;;;11.04;79.79;101822.41;2103546;28;20483;-70
2022/10/13 02:03:57;;;;;;;0.25;0.25;;;;;;;11.03;80.35;101831.66;2102903;28;20047;-71
2022/10/13 02:05:06;;;;;;;0.30;0.30;;;;;;;11.02;80.70;101821.97;2100878;28;20039;-71
2022/10/13 02:06:20;;;;;;;0.30;0.30;;;;;;;11.01;80.69;101828.47;2101697;28;20420;-72
2022/10/13 02:07:27;;;;;;;0.30;0.30;;;;;;;11.02;80.00;101830.84;2102178;28;20082;-71
2022/10/13 02:08:36;;;;;;;0.30;0.30;;;;;;;11.03;80.08;101831.66;2103548;28;20048;-71
2022/10/13 02:09:45;;;;;;;0.30;0.30;;;;;;;11.01;80.86;101828.47;2102127;28;20494;-71
2022/10/13 02:10:57;;;;;;;0.30;0.30;;;;;;;10.98;80.73;101819.09;2103499;28;20068;-68
2022/10/13 02:12:05;;;;;;;0.30;0.30;;;;;;;10.97;80.95;101819.41;2092965;28;20111;-68
2022/10/13 02:13:14;;;;;;;0.22;0.22;;;;;;;10.97;81.01;101822.13;2092721;28;20187;-67
2022/10/13 02:14:21;;;;;;;0.30;0.30;;;;;;;10.96;80.65;101821.31;2101155;28;20503;-67
2022/10/13 02:15:30;;;;;;;0.30;0.30;;;;;;;10.95;81.11;101819.75;2093400;28;20072;-69
2022/10/13 02:16:40;;;;;;;0.28;0.28;;;;;;;10.93;81.01;101821.16;2093911;28;20048;-68
2022/10/13 02:17:43;;;;;;;0.30;0.30;;;;;;;10.90;81.06;101811.00;2092532;28;20574;-68
2022/10/13 02:18:45;;;;;;;0.20;0.20;;;;;;;10.90;80.69;101811.78;2087037;28;20134;-68
2022/10/13 02:19:49;;;;;;;0.25;0.25;;;;;;;10.90;80.75;101805.59;2093054;28;20079;-67
2022/10/13 02:20:52;;;;;;;0.22;0.22;;;;;;;10.91;81.05;101807.97;2103233;28;20052;-67
2022/10/13 02:21:57;;;;;;;0.30;0.30;;;;;;;10.90;81.17;101806.38;2103525;28;20048;-68
2022/10/13 02:23:03;;;;;;;0.30;0.30;;;;;;;10.90;80.70;101805.59;2102817;28;20119;-68
2022/10/13 02:24:08;;;;;;;0.38;0.38;;;;;;;10.87;80.95;101809.72;2103113;28;20054;-67
2022/10/13 02:25:10;;;;;;;0.35;0.35;;;;;;;10.88;80.90;101803.19;2101642;28;20048;-68
2022/10/13 02:26:14;;;;;;;0.30;0.30;;;;;;;10.91;81.11;101812.59;2101206;28;20561;-67
2022/10/13 02:27:16;;;;;;;0.30;0.30;;;;;;;10.92;81.26;101808.78;2101860;28;20116;-67
2022/10/13 02:28:20;;;;;;;0.30;0.30;;;;;;;10.92;81.26;101803.38;2103442;28;20769;-68
2022/10/13 02:29:22;;;;;;;0.30;0.30;;;;;;;10.90;81.01;101792.88;2102243;28;20056;-68
2022/10/13 02:30:33;;;;;;;0.20;0.20;;;;;;;10.91;81.35;101802.56;2102337;28;20044;-69
2022/10/13 02:31:37;;;;;;;0.30;0.30;;;;;;;10.87;81.28;101800.81;2102750;28;20052;-68
2022/10/13 02:32:40;;;;;;;0.30;0.30;;;;;;;10.91;80.95;101804.50;2102584;28;20064;-68
2022/10/13 02:33:43;;;;;;;0.30;0.30;;;;;;;10.90;81.16;101797.47;2101947;28;20503;-69
2022/10/13 02:34:46;;;;;;;0.30;0.30;;;;;;;10.90;81.30;101803.69;2102070;28;20055;-67
2022/10/13 02:35:48;;;;;;;0.30;0.30;;;;;;;10.90;81.04;101800.97;2102343;28;20051;-67
2022/10/13 02:36:51;;;;;;;0.30;0.30;;;;;;;10.92;81.12;101803.38;2100209;28;20127;-68
2022/10/13 02:37:56;;;;;;;0.30;0.30;;;;;;;10.93;81.26;101811.16;2102311;28;20125;-68
2022/10/13 02:39:00;;;;;;;0.40;0.40;;;;;;;10.92;81.71;101806.88;2094356;28;20060;-68
2022/10/13 02:40:03;;;;;;;0.30;0.30;;;;;;;10.94;80.67;101806.56;2092838;28;20060;-68
2022/10/13 02:41:06;;;;;;;0.30;0.30;;;;;;;10.97;80.95;101811.31;2102471;28;20487;-68
2022/10/13 02:42:09;;;;;;;0.30;0.30;;;;;;;10.99;81.74;101811.78;2102582;28;20043;-67
2022/10/13 02:43:12;;;;;;;0.20;0.20;;;;;;;11.00;80.58;101805.28;2102366;28;20047;-68
2022/10/13 02:44:15;;;;;;;0.38;0.38;;;;;;;11.05;81.32;101807.81;2104881;28;20474;-69
2022/10/13 02:45:18;;;;;;;0.40;0.40;;;;;;;11.07;80.73;101813.69;2103622;28;20056;-68
2022/10/13 02:46:21;;;;;;;0.30;0.30;;;;;;;11.10;80.86;101810.34;2104790;28;20052;-68
2022/10/13 02:47:26;;;;;;;0.35;0.35;;;;;;;11.11;80.95;101815.44;2104366;28;20108;-68
2022/10/13 02:48:28;;;;;;;0.38;0.38;;;;;;;11.13;80.44;101809.72;2104754;28;20056;-68
2022/10/13 02:49:31;;;;;;;0.30;0.30;;;;;;;11.15;80.59;101812.88;2104625;28;20054;-69
2022/10/13 02:50:34;;;;;;;0.35;0.35;;;;;;;11.15;80.53;101812.88;2105050;28;20061;-68
2022/10/13 02:51:37;;;;;;;0.30;0.30;;;;;;;11.18;80.62;101806.84;2104305;28;20418;-68
2022/10/13 02:52:41;;;;;;;0.30;0.30;;;;;;;11.17;80.82;101807.94;2104032;28;20087;-68
2022/10/13 02:53:45;;;;;;;0.40;0.40;;;;;;;11.18;80.93;101809.56;2104625;28;20052;-68
2022/10/13 02:54:51;;;;;;;0.30;0.30;;;;;;;11.19;81.15;101811.13;2104028;28;20126;-70
2022/10/13 02:55:53;;;;;;;0.30;0.30;;;;;;;11.19;80.47;101813.84;2102107;28;20147;-68
2022/10/13 02:56:56;;;;;;;0.40;0.40;;;;;;;11.20;80.70;101810.00;2103155;28;20052;-68
2022/10/13 02:57:57;;;;;;;0.40;0.40;;;;;;;11.20;80.23;101815.41;2104745;28;20051;-69
2022/10/13 02:59:00;;;;;;;0.40;0.40;;;;;;;11.20;80.40;101810.00;2105575;28;20119;-69
2022/10/13 03:00:04;;;;;;;0.40;0.40;;;;;;;11.20;81.02;101812.72;2104481;28;20056;-69
2022/10/13 03:01:08;;;;;;;0.30;0.30;;;;;;;11.19;80.89;101811.94;2104212;28;20048;-69
2022/10/13 03:02:10;;;;;;;0.30;0.30;;;;;;;11.17;80.72;101813.34;2103886;28;20426;-69
2022/10/13 03:03:15;;;;;;;0.40;0.40;;;;;;;11.15;80.84;101807.47;2102683;28;20044;-69
2022/10/13 03:04:21;;;;;;;0.30;0.30;;;;;;;11.11;80.85;101811.94;2102662;28;20047;-69
2022/10/13 03:05:26;;;;;;;0.30;0.30;;;;;;;11.06;81.12;101810.19;2103592;28;20050;-69
2022/10/13 03:06:28;;;;;;;0.40;0.40;;;;;;;11.05;82.22;101814.00;2103929;28;20615;-69
2022/10/13 03:07:31;;;;;;;0.30;0.30;;;;;;;11.04;81.79;101806.22;2102949;28;20056;-69
2022/10/13 03:08:34;;;;;;;0.25;0.25;;;;;;;11.02;81.87;101808.47;2105028;28;20465;-69
2022/10/13 03:09:37;;;;;;;0.30;0.30;;;;;;;11.01;81.99;101804.16;2103805;28;20056;-69
2022/10/13 03:10:39;;;;;;;0.32;0.32;;;;;;;11.00;82.84;101802.56;2103914;28;20105;-69
2022/10/13 03:11:42;;;;;;;0.30;0.30;;;;;;;11.00;82.22;101800.66;2094606;28;20048;-69
2022/10/13 03:12:44;;;;;;;0.30;0.30;;;;;;;11.01;81.85;101806.84;2095277;28;20597;-69
2022/10/13 03:13:47;;;;;;;0.30;0.30;;;;;;;10.99;82.42;101803.69;2095033;28;20057;-69
2022/10/13 03:14:49;;;;;;;0.30;0.30;;;;;;;11.00;82.14;101802.56;2095422;28;20053;-69
2022/10/13 03:15:52;;;;;;;0.30;0.30;;;;;;;10.99;82.66;101793.66;2104060;28;20068;-69
2022/10/13 03:16:54;;;;;;;0.30;0.30;;;;;;;10.99;83.01;101799.06;2104094;28;20549;-69
2022/10/13 03:17:57;;;;;;;0.30;0.30;;;;;;;10.99;82.72;101798.28;2095901;28;20113;-68
2022/10/13 03:19:00;;;;;;;0.30;0.30;;;;;;;10.99;82.84;101801.75;2095509;28;20048;-68
2022/10/13 03:20:04;;;;;;;0.30;0.30;;;;;;;10.98;83.13;101802.88;2104341;28;20125;-69
2022/10/13 03:21:06;;;;;;;0.30;0.30;;;;;;;10.97;83.28;101801.31;2095667;28;20056;-68
2022/10/13 03:22:13;;;;;;;0.40;0.40;;;;;;;10.99;83.05;101798.28;2094850;28;20079;-67
2022/10/13 03:23:15;;;;;;;0.40;0.40;;;;;;;10.99;82.94;101792.88;2094891;28;20049;-67
2022/10/13 03:24:18;;;;;;;0.40;0.40;;;;;;;10.97;83.08;101801.31;2093560;28;20056;-67
2022/10/13 03:25:20;;;;;;;0.30;0.30;;;;;;;10.97;83.33;101795.09;2103331;28;20055;-68
2022/10/13 03:26:23;;;;;;;0.40;0.40;;;;;;;10.97;82.75;101800.50;2104369;28;20044;-68
2022/10/13 03:27:25;;;;;;;0.40;0.40;;;;;;;10.98;83.57;101796.69;2092837;28;20100;-69
2022/10/13 03:28:28;;;;;;;0.35;0.35;;;;;;;10.98;83.08;101802.09;2095345;28;20068;-68
2022/10/13 03:29:30;;;;;;;0.40;0.40;;;;;;;10.98;83.01;101799.38;2103886;28;20112;-67
2022/10/13 03:30:34;;;;;;;0.40;0.40;;;;;;;10.99;82.96;101790.97;2103308;28;20047;-68
2022/10/13 03:31:39;;;;;;;0.50;0.50;;;;;;;10.98;83.69;101791.28;2104247;28;20048;-68
2022/10/13 03:32:44;;;;;;;0.40;0.40;;;;;;;10.98;83.44;101793.97;2103446;28;20048;-68
2022/10/13 03:33:50;;;;;;;0.40;0.40;;;;;;;10.97;83.41;101778.91;2102678;28;20059;-68
2022/10/13 03:34:55;;;;;;;0.40;0.40;;;;;;;10.98;83.58;101777.78;2101646;28;20057;-67
2022/10/13 03:35:59;;;;;;;0.30;0.30;;;;;;;10.99;83.57;101787.47;2104408;28;20048;-68
2022/10/13 03:37:02;;;;;;;0.30;0.30;;;;;;;10.97;83.71;101779.69;2103075;28;20045;-68
2022/10/13 03:38:10;;;;;;;0.40;0.40;;;;;;;10.95;84.44;101771.09;2104427;28;20097;-67
2022/10/13 03:39:14;;;;;;;0.40;0.40;;;;;;;10.96;83.67;101769.19;2103850;28;20052;-67
2022/10/13 03:40:16;;;;;;;0.40;0.40;;;;;;;10.97;83.21;101768.09;2103067;28;20139;-68
2022/10/13 03:41:18;;;;;;;0.40;0.40;;;;;;;10.96;83.18;101769.19;2103058;28;21046;-67
2022/10/13 03:42:24;;;;;;;0.40;0.40;;;;;;;10.96;83.19;101766.47;2105044;28;20056;-68
2022/10/13 03:43:26;;;;;;;0.40;0.40;;;;;;;10.93;83.97;101767.13;2104650;28;20056;-68
2022/10/13 03:44:29;;;;;;;0.35;0.35;;;;;;;10.93;83.95;101769.81;2102990;28;20052;-67
2022/10/13 03:45:31;;;;;;;0.35;0.35;;;;;;;10.91;83.95;101758.56;2094863;28;20044;-67
2022/10/13 03:46:34;;;;;;;0.30;0.30;;;;;;;10.91;84.47;101769.38;2093645;28;20470;-67
2022/10/13 03:47:36;;;;;;;0.40;0.40;;;;;;;10.88;83.76;101765.38;2103459;28;20139;-68
2022/10/13 03:48:39;;;;;;;0.40;0.40;;;;;;;10.89;83.97;101758.06;2095516;28;20139;-67
2022/10/13 03:49:41;;;;;;;0.40;0.40;;;;;;;10.87;83.94;101763.81;2095247;28;20506;-67
2022/10/13 03:50:45;;;;;;;0.35;0.35;;;;;;;10.85;84.65;101765.22;2104348;28;20060;-68
2022/10/13 03:51:48;;;;;;;0.38;0.38;;;;;;;10.82;84.12;101761.25;2103896;28;20056;-68
2022/10/13 03:52:50;;;;;;;0.47;0.47;;;;;;;10.79;84.50;101766.50;2103434;28;20044;-68
2022/10/13 03:53:53;;;;;;;0.40;0.40;;;;;;;10.75;84.97;101763.63;2104408;28;20051;-68
2022/10/13 03:54:55;;;;;;;0.40;0.40;;;;;;;10.75;85.16;101752.06;2102186;28;20105;-67
2022/10/13 03:55:58;;;;;;;0.35;0.35;;;;;;;10.75;84.77;101754.75;2102114;28;20142;-68
2022/10/13 03:57:00;;;;;;;0.40;0.40;;;;;;;10.73;84.92;101762.38;2102316;28;20609;-67
2022/10/13 03:58:03;;;;;;;0.40;0.40;;;;;;;10.72;85.39;101758.88;2103226;28;20063;-68
2022/10/13 03:59:06;;;;;;;0.40;0.40;;;;;;;10.72;85.23;101758.88;2103128;28;20778;-67
2022/10/13 04:00:13;;;;;;;0.40;0.40;;;;;;;10.72;85.61;101761.56;2093689;28;20132;-68
2022/10/13 04:01:16;;;;;;;0.40;0.40;;;;;;;10.71;85.76;101770.81;2094580;28;20137;-68
2022/10/13 04:02:21;;;;;;;0.50;0.50;;;;;;;10.73;85.28;101762.38;2103739;28;20426;-67
2022/10/13 04:03:25;;;;;;;0.50;0.50;;;;;;;10.73;85.32;101765.09;2095146;28;20061;-69
2022/10/13 04:04:28;;;;;;;0.40;0.40;;;;;;;10.72;85.86;101763.50;2094453;28;20048;-67
2022/10/13 04:05:33;;;;;;;0.40;0.40;;;;;;;10.71;85.59;101757.28;2102786;28;20055;-68
2022/10/13 04:06:37;;;;;;;0.40;0.40;;;;;;;10.71;86.06;101764.59;2104627;28;20080;-68
2022/10/13 04:07:39;;;;;;;0.40;0.40;;;;;;;10.70;85.81;101760.31;2103665;28;20056;-67
2022/10/13 04:08:53;;;;;;;0.40;0.40;;;;;;;10.67;86.44;101756.38;2104370;28;20550;-67
2022/10/13 04:09:55;;;;;;;0.40;0.40;;;;;;;10.69;85.89;101756.03;2103577;28;20593;-68
2022/10/13 04:10:59;;;;;;;0.40;0.40;;;;;;;10.68;85.96;101755.25;2103514;28;20600;-67
2022/10/13 04:12:02;;;;;;;0.50;0.50;;;;;;;10.68;86.28;101762.53;2104123;28;20117;-67
2022/10/13 04:13:06;;;;;;;0.50;0.50;;;;;;;10.69;86.97;101758.75;2100693;28;20051;-67
2022/10/13 04:14:12;;;;;;;0.50;0.50;;;;;;;10.68;86.34;101754.44;2100844;28;21001;-68
2022/10/13 04:15:14;;;;;;;0.50;0.50;;;;;;;10.66;86.15;101759.34;2100511;28;20514;-67
2022/10/13 04:16:19;;;;;;;0.40;0.40;;;;;;;10.68;86.22;101759.84;2100982;28;20612;-67
2022/10/13 04:17:22;;;;;;;0.40;0.40;;;;;;;10.67;86.53;101760.97;2099919;28;20540;-68
2022/10/13 04:18:25;;;;;;;0.40;0.40;;;;;;;10.66;86.96;101751.25;2101278;28;20051;-69
2022/10/13 04:19:27;;;;;;;0.50;0.50;;;;;;;10.65;86.63;101747.78;2100099;28;20121;-68
2022/10/13 04:20:30;;;;;;;0.50;0.50;;;;;;;10.63;86.65;101755.41;2100780;28;20665;-67
2022/10/13 04:21:34;;;;;;;0.50;0.50;;;;;;;10.65;87.67;101760.47;2092708;28;20056;-68
2022/10/13 04:22:38;;;;;;;0.40;0.40;;;;;;;10.66;87.01;101753.94;2083933;28;20112;-67
2022/10/13 04:23:40;;;;;;;0.50;0.50;;;;;;;10.65;86.48;101749.66;2091108;28;20056;-67
2022/10/13 04:24:43;;;;;;;0.50;0.50;;;;;;;10.65;87.70;101749.66;2090993;28;20473;-67
2022/10/13 04:25:45;;;;;;;0.50;0.50;;;;;;;10.66;86.87;101751.25;2091870;28;20094;-67
2022/10/13 04:26:49;;;;;;;0.57;0.57;;;;;;;10.64;87.34;101745.41;2100287;28;20123;-68
2022/10/13 04:27:51;;;;;;;0.50;0.50;;;;;;;10.65;87.35;101747.78;2100568;28;20388;-67
2022/10/13 04:28:55;;;;;;;0.50;0.50;;;;;;;10.64;87.45;101742.69;2101224;28;20048;-68
2022/10/13 04:29:57;;;;;;;0.60;0.60;;;;;;;10.66;87.70;101745.84;2090659;28;20716;-67
2022/10/13 04:31:01;;;;;;;0.50;0.50;;;;;;;10.65;87.83;101745.06;2091786;28;20060;-67
2022/10/13 04:32:04;;;;;;;0.60;0.60;;;;;;;10.59;88.38;101740.94;2100450;28;20127;-68
2022/10/13 04:33:08;;;;;;;0.50;0.50;;;;;;;10.61;88.06;101749.50;2092266;28;20052;-68
2022/10/13 04:34:11;;;;;;;0.52;0.52;;;;;;;10.60;87.34;101742.53;2082537;28;20053;-67
2022/10/13 04:35:13;;;;;;;0.50;0.50;;;;;;;10.59;87.67;101736.31;2090335;28;20124;-68
2022/10/13 04:36:17;;;;;;;0.40;0.40;;;;;;;10.61;88.71;101737.94;2100483;28;20563;-68
2022/10/13 04:37:22;;;;;;;0.60;0.60;;;;;;;10.58;88.04;101744.75;2100524;28;20040;-67
2022/10/13 04:38:26;;;;;;;0.50;0.50;;;;;;;10.61;88.53;101746.81;2101442;28;21611;-67
2022/10/13 04:39:28;;;;;;;0.52;0.52;;;;;;;10.58;88.71;101739.34;2099197;28;20108;-67
2022/10/13 04:40:31;;;;;;;0.50;0.50;;;;;;;10.57;88.01;101738.56;2099870;28;20109;-67
2022/10/13 04:41:33;;;;;;;0.50;0.50;;;;;;;10.59;88.77;101736.31;2101082;28;20051;-68
2022/10/13 04:42:36;;;;;;;0.60;0.60;;;;;;;10.61;88.41;101744.09;2100868;28;20086;-68
2022/10/13 04:43:38;;;;;;;0.60;0.60;;;;;;;10.62;88.87;101744.91;2099645;28;20080;-68
2022/10/13 04:44:41;;;;;;;0.50;0.50;;;;;;;10.64;88.05;101731.91;2099983;28;20124;-68
2022/10/13 04:45:45;;;;;;;0.60;0.60;;;;;;;10.65;88.46;101744.28;2101020;28;20908;-68
2022/10/13 04:46:48;;;;;;;0.50;0.50;;;;;;;10.65;88.63;101739.69;2099646;28;20145;-68
2022/10/13 04:47:50;;;;;;;0.50;0.50;;;;;;;10.66;88.74;101735.84;2101218;28;20411;-68
2022/10/13 04:48:57;;;;;;;0.50;0.50;;;;;;;10.66;89.03;101733.16;2092009;28;20060;-68
2022/10/13 04:50:06;;;;;;;0.50;0.50;;;;;;;10.65;88.83;101734.28;2091322;28;20129;-68
2022/10/13 04:51:11;;;;;;;0.50;0.50;;;;;;;10.68;88.83;101732.81;2099901;28;20109;-69
2022/10/13 04:52:13;;;;;;;0.50;0.50;;;;;;;10.66;88.02;101735.84;2082743;28;20056;-70
2022/10/13 04:53:16;;;;;;;0.50;0.50;;;;;;;10.68;88.41;101733.63;2084680;28;20170;-70
2022/10/13 04:54:22;;;;;;;0.50;0.50;;;;;;;10.68;89.19;101743.63;2099868;28;20132;-70
2022/10/13 04:55:24;;;;;;;0.57;0.57;;;;;;;10.65;88.59;101742.38;2100851;28;21484;-70
2022/10/13 04:56:28;;;;;;;0.50;0.50;;;;;;;10.65;89.13;101738.88;2100833;28;20056;-69
2022/10/13 04:57:35;;;;;;;0.60;0.60;;;;;;;10.62;88.46;101739.50;2099649;28;20055;-68
2022/10/13 04:58:39;;;;;;;0.60;0.60;;;;;;;10.65;88.97;101738.88;2102355;28;20063;-68
2022/10/13 04:59:41;;;;;;;0.50;0.50;;;;;;;10.66;89.33;101737.75;2099133;28;20064;-67
2022/10/13 05:00:45;;;;;;;0.50;0.50;;;;;;;10.65;89.55;101741.56;2099690;28;20052;-67
2022/10/13 05:01:48;;;;;;;0.50;0.50;;;;;;;10.59;88.87;101736.31;2091896;28;20059;-68
2022/10/13 05:02:50;;;;;;;0.50;0.50;;;;;;;10.62;89.31;101740.31;2091871;28;20049;-68
2022/10/13 05:03:54;;;;;;;0.50;0.50;;;;;;;10.63;89.56;101741.88;2100385;28;20059;-67
2022/10/13 05:04:56;;;;;;;0.50;0.50;;;;;;;10.65;89.93;101738.88;2101092;28;20405;-68